createdAt,value
2023-05-25T00:01:02.660Z,13.20
2023-05-25T00:03:31.944Z,13.20
2023-05-25T00:06:01.516Z,13.10
2023-05-25T00:08:29.039Z,13.10
2023-05-25T00:11:52.099Z,13.10
2023-05-25T00:14:19.515Z,13.10
2023-05-25T00:16:48.204Z,13.20
2023-05-25T00:19:15.575Z,13.20
2023-05-25T00:21:42.237Z,13.20
2023-05-25T00:24:08.932Z,13.30
2023-05-25T00:26:36.149Z,13.30
2023-05-25T00:29:04.215Z,13.40
2023-05-25T00:31:33.493Z,13.30
2023-05-25T00:34:00.573Z,13.30
2023-05-25T00:36:27.444Z,13.30
2023-05-25T00:38:54.085Z,13.20
2023-05-25T00:41:22.399Z,13.20
2023-05-25T00:43:49.080Z,13.30
2023-05-25T00:46:15.838Z,13.30
2023-05-25T00:48:43.720Z,13.40
2023-05-25T00:51:13.712Z,13.40
2023-05-25T00:53:41.393Z,13.30
2023-05-25T00:56:18.037Z,13.30
2023-05-25T00:58:46.550Z,13.30
2023-05-25T01:01:15.118Z,13.20
2023-05-25T01:03:45.480Z,13.20
2023-05-25T01:06:15.736Z,13.20
2023-05-25T01:08:47.212Z,13.20
2023-05-25T01:11:14.975Z,13.20
2023-05-25T01:13:42.839Z,13.00
2023-05-25T01:16:09.810Z,13.10
2023-05-25T01:18:37.571Z,12.80
2023-05-25T01:21:13.301Z,12.90
2023-05-25T01:23:52.025Z,12.90
2023-05-25T01:26:20.687Z,13.10
2023-05-25T01:28:51.628Z,13.10
2023-05-25T01:31:22.332Z,13.10
2023-05-25T01:33:51.770Z,13.20
2023-05-25T01:36:19.418Z,13.20
2023-05-25T01:38:46.206Z,13.20
2023-05-25T01:41:12.986Z,13.20
2023-05-25T01:43:39.898Z,13.10
2023-05-25T01:46:19.525Z,13.20
2023-05-25T01:49:11.329Z,13.20
2023-05-25T01:51:49.434Z,13.10
2023-05-25T01:54:20.033Z,13.10
2023-05-25T01:56:49.440Z,13.20
2023-05-25T01:59:20.487Z,13.10
2023-05-25T02:01:49.793Z,13.10
2023-05-25T02:04:18.861Z,13.10
2023-05-25T02:06:48.953Z,13.10
2023-05-25T02:09:15.930Z,13.00
2023-05-25T02:11:42.537Z,12.90
2023-05-25T02:14:09.510Z,12.90
2023-05-25T02:16:36.340Z,12.90
2023-05-25T02:19:03.066Z,12.90
2023-05-25T02:21:29.709Z,12.90
2023-05-25T02:23:57.979Z,12.90
2023-05-25T02:26:24.650Z,12.80
2023-05-25T02:28:51.711Z,12.70
2023-05-25T02:31:18.475Z,12.80
2023-05-25T02:33:45.288Z,12.70
2023-05-25T02:36:11.971Z,12.70
2023-05-25T02:38:38.668Z,12.70
2023-05-25T02:41:05.319Z,12.60
2023-05-25T02:43:32.601Z,12.50
2023-05-25T02:45:59.276Z,12.60
2023-05-25T02:48:26.113Z,12.60
2023-05-25T02:50:52.712Z,12.60
2023-05-25T02:53:19.325Z,12.50
2023-05-25T02:55:46.191Z,12.40
2023-05-25T02:58:13.080Z,12.40
2023-05-25T03:00:39.705Z,12.30
2023-05-25T03:03:06.494Z,12.30
2023-05-25T03:05:35.196Z,12.10
2023-05-25T03:08:02.055Z,12.10
2023-05-25T03:10:28.702Z,12.20
2023-05-25T03:12:55.442Z,12.20
2023-05-25T03:15:23.199Z,12.20
2023-05-25T03:17:50.479Z,12.20
2023-05-25T03:20:17.193Z,12.20
2023-05-25T03:22:44.038Z,12.20
2023-05-25T03:25:13.058Z,12.10
2023-05-25T03:27:40.473Z,12.20
2023-05-25T03:30:08.088Z,12.20
2023-05-25T03:32:34.752Z,12.20
2023-05-25T03:35:01.557Z,12.20
2023-05-25T03:37:28.213Z,12.10
2023-05-25T03:39:54.831Z,12.10
2023-05-25T03:42:21.444Z,12.00
2023-05-25T03:44:50.938Z,11.90
2023-05-25T03:47:17.567Z,11.90
2023-05-25T03:49:44.230Z,11.80
2023-05-25T03:52:10.835Z,11.80
2023-05-25T03:54:37.473Z,11.70
2023-05-25T03:57:04.306Z,11.70
2023-05-25T03:59:31.619Z,11.70
2023-05-25T04:01:58.298Z,11.60
2023-05-25T04:04:24.933Z,11.50
2023-05-25T04:06:51.797Z,11.50
2023-05-25T04:09:18.717Z,11.60
2023-05-25T04:11:45.909Z,11.50
2023-05-25T04:14:12.864Z,11.50
2023-05-25T04:16:41.366Z,11.50
2023-05-25T04:19:08.160Z,11.40
2023-05-25T04:21:34.921Z,11.40
2023-05-25T04:24:01.881Z,11.40
2023-05-25T04:26:28.779Z,11.20
2023-05-25T04:28:57.719Z,11.30
2023-05-25T04:31:27.109Z,11.30
2023-05-25T04:33:56.014Z,11.30
2023-05-25T04:36:23.402Z,11.20
2023-05-25T04:38:54.927Z,11.30
2023-05-25T04:41:21.667Z,11.30
2023-05-25T04:44:04.707Z,11.30
2023-05-25T04:46:37.193Z,11.30
2023-05-25T04:49:05.436Z,11.30
2023-05-25T04:51:32.506Z,11.30
2023-05-25T04:53:59.741Z,11.30
2023-05-25T04:56:26.712Z,11.20
2023-05-25T04:58:53.614Z,11.30
2023-05-25T05:01:20.597Z,11.40
2023-05-25T05:03:47.338Z,11.50
2023-05-25T05:06:13.968Z,11.40
2023-05-25T05:08:41.804Z,11.40
2023-05-25T05:11:08.542Z,11.40
2023-05-25T05:13:35.328Z,11.30
2023-05-25T05:16:02.154Z,11.30
2023-05-25T05:18:29.151Z,11.30
2023-05-25T05:20:55.993Z,11.40
2023-05-25T05:23:22.651Z,11.40
2023-05-25T05:25:49.297Z,11.40
2023-05-25T05:28:15.932Z,11.40
2023-05-25T05:30:44.099Z,11.40
2023-05-25T05:33:10.856Z,11.50
2023-05-25T05:35:37.578Z,11.50
2023-05-25T05:38:05.092Z,11.50
2023-05-25T05:40:31.774Z,11.50
2023-05-25T05:42:58.445Z,11.50
2023-05-25T05:45:25.088Z,11.50
2023-05-25T05:47:51.749Z,11.50
2023-05-25T05:50:18.392Z,11.50
2023-05-25T05:52:45.005Z,11.50
2023-05-25T05:55:11.639Z,11.50
2023-05-25T05:57:38.316Z,11.60
2023-05-25T06:00:06.837Z,11.50
2023-05-25T06:02:33.666Z,11.50
2023-05-25T06:05:01.500Z,11.60
2023-05-25T06:07:31.076Z,11.70
2023-05-25T06:09:57.874Z,11.60
2023-05-25T06:12:24.487Z,11.70
2023-05-25T06:14:52.058Z,11.70
2023-05-25T06:17:19.077Z,11.70
2023-05-25T06:19:46.038Z,11.60
2023-05-25T06:22:12.663Z,11.60
2023-05-25T06:24:39.277Z,11.60
2023-05-25T06:27:05.939Z,11.70
2023-05-25T06:29:32.711Z,11.70
2023-05-25T06:31:59.464Z,11.60
2023-05-25T06:34:26.181Z,11.60
2023-05-25T06:36:52.917Z,11.70
2023-05-25T06:39:20.187Z,11.80
2023-05-25T06:41:46.800Z,11.90
2023-05-25T06:44:13.440Z,12.00
2023-05-25T06:46:40.138Z,12.00
2023-05-25T06:49:06.886Z,12.10
2023-05-25T06:51:33.628Z,12.20
2023-05-25T06:54:00.525Z,12.30
2023-05-25T06:56:27.930Z,12.20
2023-05-25T06:58:54.582Z,12.30
2023-05-25T07:01:21.303Z,12.50
2023-05-25T07:03:47.960Z,12.60
2023-05-25T07:06:15.154Z,12.50
2023-05-25T07:08:41.836Z,12.50
2023-05-25T07:11:12.312Z,12.40
2023-05-25T07:13:38.996Z,12.40
2023-05-25T07:16:05.910Z,12.40
2023-05-25T07:18:32.614Z,12.50
2023-05-25T07:20:59.385Z,12.60
2023-05-25T07:23:26.053Z,12.70
2023-05-25T07:25:52.679Z,12.70
2023-05-25T07:28:19.299Z,12.90
2023-05-25T07:30:45.976Z,12.70
2023-05-25T07:33:12.606Z,12.50
2023-05-25T07:35:39.233Z,12.50
2023-05-25T07:38:05.928Z,12.40
2023-05-25T07:40:32.986Z,12.50
2023-05-25T07:42:59.629Z,12.60
2023-05-25T07:45:26.326Z,12.50
2023-05-25T07:47:53.015Z,12.50
2023-05-25T07:50:19.799Z,12.60
2023-05-25T07:52:46.669Z,12.50
2023-05-25T07:55:13.517Z,12.50
2023-05-25T07:57:40.336Z,12.50
2023-05-25T08:00:11.036Z,12.50
2023-05-25T08:02:37.879Z,12.60
2023-05-25T08:05:06.141Z,12.60
2023-05-25T08:07:33.723Z,12.70
2023-05-25T08:10:00.733Z,12.50
2023-05-25T08:12:45.991Z,12.50
2023-05-25T08:15:14.177Z,12.60
2023-05-25T08:17:41.645Z,12.70
2023-05-25T08:20:09.133Z,12.80
2023-05-25T08:22:36.298Z,12.90
2023-05-25T08:25:04.169Z,13.00
2023-05-25T08:27:32.781Z,13.00
2023-05-25T08:30:01.647Z,13.00
2023-05-25T08:32:28.336Z,13.10
2023-05-25T08:34:54.988Z,13.10
2023-05-25T08:37:23.466Z,13.20
2023-05-25T08:39:50.611Z,13.40
2023-05-25T08:42:17.320Z,13.40
2023-05-25T08:44:43.980Z,13.40
2023-05-25T08:47:12.456Z,13.50
2023-05-25T08:49:41.172Z,13.50
2023-05-25T08:52:14.962Z,13.50
2023-05-25T08:54:44.330Z,13.70
2023-05-25T08:57:14.782Z,13.80
2023-05-25T09:00:11.444Z,13.80
2023-05-25T09:02:42.811Z,13.90
2023-05-25T09:05:09.911Z,13.90
2023-05-25T09:07:36.836Z,14.10
2023-05-25T09:10:04.867Z,14.00
2023-05-25T09:12:32.615Z,14.00
2023-05-25T09:14:59.441Z,14.00
2023-05-25T09:17:26.892Z,13.90
2023-05-25T09:19:54.277Z,13.90
2023-05-25T09:22:21.046Z,14.00
2023-05-25T09:24:48.510Z,14.00
2023-05-25T09:27:21.698Z,13.90
2023-05-25T09:29:52.226Z,13.90
2023-05-25T09:32:19.417Z,14.00
2023-05-25T09:34:47.309Z,14.20
2023-05-25T09:37:16.306Z,14.20
2023-05-25T09:39:44.503Z,14.20
2023-05-25T09:42:11.688Z,14.30
2023-05-25T09:44:39.563Z,14.30
2023-05-25T09:47:06.460Z,14.30
2023-05-25T09:49:33.326Z,14.20
2023-05-25T09:52:00.636Z,14.20
2023-05-25T09:54:27.468Z,14.20
2023-05-25T09:56:54.553Z,14.40
2023-05-25T09:59:23.194Z,14.30
2023-05-25T10:01:56.129Z,14.40
2023-05-25T10:04:22.958Z,14.30
2023-05-25T10:06:51.154Z,14.40
2023-05-25T10:09:22.404Z,14.40
2023-05-25T10:11:51.460Z,14.40
2023-05-25T10:14:28.112Z,14.40
2023-05-25T10:17:01.427Z,14.60
2023-05-25T10:19:41.294Z,14.80
2023-05-25T10:22:19.508Z,14.60
2023-05-25T10:25:01.806Z,14.70
2023-05-25T10:27:39.140Z,14.70
2023-05-25T10:30:07.315Z,14.90
2023-05-25T10:32:36.704Z,14.90
2023-05-25T10:35:05.988Z,14.80
2023-05-25T10:37:34.720Z,14.80
2023-05-25T10:40:02.187Z,14.60
2023-05-25T10:42:29.756Z,14.60
2023-05-25T10:44:57.552Z,14.80
2023-05-25T10:47:24.673Z,14.90
2023-05-25T10:50:02.911Z,14.90
2023-05-25T10:52:31.373Z,15.00
2023-05-25T10:55:03.812Z,15.10
2023-05-25T10:57:31.134Z,15.20
2023-05-25T11:00:10.294Z,15.20
2023-05-25T11:02:55.237Z,15.30
2023-05-25T11:05:27.873Z,15.30
2023-05-25T11:07:56.003Z,15.30
2023-05-25T11:10:41.775Z,15.20
2023-05-25T11:13:22.439Z,15.20
2023-05-25T11:16:18.035Z,15.40
2023-05-25T11:18:49.773Z,15.30
2023-05-25T11:21:27.161Z,15.40
2023-05-25T11:23:58.809Z,15.20
2023-05-25T11:26:55.812Z,15.30
2023-05-25T11:29:22.654Z,15.40
2023-05-25T11:31:54.973Z,15.40
2023-05-25T11:34:27.931Z,15.40
2023-05-25T11:37:03.816Z,15.60
2023-05-25T11:39:33.801Z,15.70
2023-05-25T11:42:05.455Z,15.70
2023-05-25T11:44:33.764Z,15.80
2023-05-25T11:47:09.792Z,15.80
2023-05-25T11:49:44.099Z,15.80
2023-05-25T11:52:11.041Z,15.90
2023-05-25T11:54:40.914Z,15.70
2023-05-25T11:57:14.539Z,15.70
2023-05-25T11:59:47.875Z,15.80
2023-05-25T12:02:14.510Z,15.90
2023-05-25T12:04:42.979Z,15.80
2023-05-25T12:07:09.753Z,16.00
2023-05-25T12:09:36.938Z,16.10
2023-05-25T12:12:04.364Z,16.20
2023-05-25T12:14:32.800Z,16.20
2023-05-25T12:16:59.816Z,16.20
2023-05-25T12:19:26.955Z,16.20
2023-05-25T12:21:53.710Z,16.30
2023-05-25T12:24:20.536Z,16.20
2023-05-25T12:26:59.176Z,16.30
2023-05-25T12:29:26.314Z,16.30
2023-05-25T12:31:53.105Z,16.50
2023-05-25T12:34:20.958Z,16.70
2023-05-25T12:36:55.244Z,16.80
2023-05-25T12:39:31.105Z,16.70
2023-05-25T12:41:59.785Z,16.70
2023-05-25T12:44:27.428Z,16.70
2023-05-25T12:46:56.014Z,16.50
2023-05-25T12:49:29.321Z,16.50
2023-05-25T12:51:56.626Z,16.50
2023-05-25T12:54:33.607Z,16.50
2023-05-25T12:57:02.253Z,16.70
2023-05-25T12:59:30.574Z,16.80
2023-05-25T13:01:57.606Z,16.90
2023-05-25T13:04:24.386Z,17.20
2023-05-25T13:06:51.855Z,17.30
2023-05-25T13:09:18.658Z,17.30
2023-05-25T13:11:46.451Z,17.30
2023-05-25T13:14:13.062Z,17.30
2023-05-25T13:16:39.874Z,17.30
2023-05-25T13:19:07.063Z,17.40
2023-05-25T13:21:33.671Z,17.20
2023-05-25T13:24:00.342Z,17.30
2023-05-25T13:26:27.224Z,17.40
2023-05-25T13:28:53.871Z,17.40
2023-05-25T13:31:20.681Z,17.50
2023-05-25T13:33:47.383Z,17.80
2023-05-25T13:36:15.352Z,17.80
2023-05-25T13:38:42.328Z,17.70
2023-05-25T13:41:09.086Z,17.70
2023-05-25T13:43:36.842Z,17.70
2023-05-25T13:46:03.921Z,17.70
2023-05-25T13:48:30.859Z,17.60
2023-05-25T13:50:57.539Z,17.60
2023-05-25T13:53:24.187Z,17.60
2023-05-25T13:55:50.836Z,17.50
2023-05-25T13:58:17.514Z,17.50
2023-05-25T14:00:44.441Z,17.50
2023-05-25T14:03:11.337Z,17.50
2023-05-25T14:05:38.054Z,17.60
2023-05-25T14:08:09.629Z,17.70
2023-05-25T14:10:36.754Z,17.80
2023-05-25T14:13:03.400Z,17.90
2023-05-25T14:15:30.079Z,17.90
2023-05-25T14:17:57.517Z,17.90
2023-05-25T14:20:26.123Z,17.90
2023-05-25T14:22:53.261Z,17.90
2023-05-25T14:25:20.059Z,17.90
2023-05-25T14:27:46.684Z,17.90
2023-05-25T14:30:13.450Z,17.90
2023-05-25T14:32:40.186Z,17.80
2023-05-25T14:35:07.294Z,17.70
2023-05-25T14:37:33.909Z,17.70
2023-05-25T14:40:00.800Z,17.70
2023-05-25T14:42:27.741Z,17.80
2023-05-25T14:44:54.365Z,17.80
2023-05-25T14:47:21.188Z,17.80
2023-05-25T14:49:47.859Z,18.00
2023-05-25T14:52:14.515Z,18.10
2023-05-25T14:54:44.749Z,18.10
2023-05-25T14:57:12.173Z,18.00
2023-05-25T14:59:39.074Z,18.00
2023-05-25T15:02:06.209Z,18.20
2023-05-25T15:04:33.163Z,18.30
2023-05-25T15:07:00.987Z,18.40
2023-05-25T15:09:27.624Z,18.40
2023-05-25T15:11:54.338Z,18.20
2023-05-25T15:14:20.989Z,18.20
2023-05-25T15:16:47.727Z,18.20
2023-05-25T15:19:17.384Z,18.30
2023-05-25T15:21:44.689Z,18.40
2023-05-25T15:24:13.757Z,18.40
2023-05-25T15:26:40.381Z,18.40
2023-05-25T15:29:06.981Z,18.50
2023-05-25T15:31:33.652Z,18.70
2023-05-25T15:34:00.856Z,18.80
2023-05-25T15:36:27.536Z,18.70
2023-05-25T15:38:54.139Z,18.60
2023-05-25T15:41:20.921Z,18.70
2023-05-25T15:43:58.213Z,18.60
2023-05-25T15:46:25.760Z,18.60
2023-05-25T15:48:52.432Z,18.70
2023-05-25T15:51:19.217Z,18.70
2023-05-25T15:53:46.780Z,18.70
2023-05-25T15:56:13.440Z,18.70
2023-05-25T15:58:40.121Z,18.90
2023-05-25T16:01:06.815Z,18.80
2023-05-25T16:03:33.533Z,18.70
2023-05-25T16:06:00.247Z,18.70
2023-05-25T16:08:26.876Z,18.80
2023-05-25T16:10:53.509Z,18.80
2023-05-25T16:13:20.339Z,18.80
2023-05-25T16:15:47.235Z,18.70
2023-05-25T16:18:14.129Z,18.70
2023-05-25T16:20:41.185Z,18.70
2023-05-25T16:23:08.160Z,18.70
2023-05-25T16:25:34.819Z,18.80
2023-05-25T16:28:01.474Z,18.90
2023-05-25T16:30:28.111Z,18.90
2023-05-25T16:32:54.713Z,18.80
2023-05-25T16:35:21.575Z,18.90
2023-05-25T16:37:48.239Z,18.80
2023-05-25T16:40:14.952Z,18.80
2023-05-25T16:42:41.558Z,18.90
2023-05-25T16:45:08.698Z,19.00
2023-05-25T16:47:35.542Z,19.00
2023-05-25T16:50:02.494Z,19.00
2023-05-25T16:52:29.098Z,19.00
2023-05-25T16:54:56.336Z,19.10
2023-05-25T16:57:23.013Z,19.10
2023-05-25T16:59:51.153Z,19.10
2023-05-25T17:02:18.968Z,19.00
2023-05-25T17:04:45.666Z,19.00
2023-05-25T17:07:12.301Z,19.10
2023-05-25T17:09:38.994Z,19.10
2023-05-25T17:12:06.954Z,19.20
2023-05-25T17:14:33.712Z,19.30
2023-05-25T17:17:00.376Z,19.30
2023-05-25T17:19:27.028Z,19.40
2023-05-25T17:21:53.696Z,19.40
2023-05-25T17:24:20.315Z,19.30
2023-05-25T17:26:49.866Z,19.30
2023-05-25T17:29:16.518Z,19.30
2023-05-25T17:31:43.234Z,19.20
2023-05-25T17:34:09.895Z,19.10
2023-05-25T17:36:37.266Z,19.10
2023-05-25T17:39:04.668Z,19.10
2023-05-25T17:41:31.356Z,19.00
2023-05-25T17:43:57.989Z,19.10
2023-05-25T17:46:24.682Z,19.20
2023-05-25T17:48:51.397Z,19.20
2023-05-25T17:51:18.541Z,19.10
2023-05-25T17:53:45.325Z,19.00
2023-05-25T17:56:11.933Z,19.00
2023-05-25T17:58:38.830Z,19.00
2023-05-25T18:01:05.648Z,18.90
2023-05-25T18:03:32.528Z,18.90
2023-05-25T18:05:59.330Z,18.90
2023-05-25T18:08:26.001Z,18.90
2023-05-25T18:10:52.780Z,18.90
2023-05-25T18:13:19.463Z,18.90
2023-05-25T18:15:46.344Z,19.00
2023-05-25T18:18:15.537Z,18.90
2023-05-25T18:20:42.976Z,18.90
2023-05-25T18:23:09.711Z,18.90
2023-05-25T18:25:36.366Z,18.90
2023-05-25T18:28:02.999Z,18.80
2023-05-25T18:30:29.656Z,18.80
2023-05-25T18:32:56.295Z,18.80
2023-05-25T18:35:22.995Z,18.80
2023-05-25T18:37:49.633Z,18.80
2023-05-25T18:40:16.395Z,18.70
2023-05-25T18:42:43.150Z,18.70
2023-05-25T18:45:10.146Z,18.60
2023-05-25T18:47:36.817Z,18.60
2023-05-25T18:50:04.363Z,18.60
2023-05-25T18:52:31.256Z,18.50
2023-05-25T18:54:57.860Z,18.50
2023-05-25T18:57:24.486Z,18.50
2023-05-25T18:59:52.086Z,18.50
2023-05-25T19:02:18.901Z,18.50
2023-05-25T19:04:45.646Z,18.40
2023-05-25T19:07:12.674Z,18.40
2023-05-25T19:09:39.352Z,18.30
2023-05-25T19:12:07.305Z,18.30
2023-05-25T19:14:34.175Z,18.20
2023-05-25T19:17:01.084Z,18.20
2023-05-25T19:19:27.729Z,18.20
2023-05-25T19:21:54.376Z,18.20
2023-05-25T19:24:21.155Z,18.10
2023-05-25T19:26:49.677Z,18.20
2023-05-25T19:29:16.720Z,18.20
2023-05-25T19:31:43.390Z,18.20
2023-05-25T19:34:10.078Z,18.10
2023-05-25T19:36:36.768Z,18.00
2023-05-25T19:39:04.778Z,17.90
2023-05-25T19:41:31.581Z,17.80
2023-05-25T19:43:58.230Z,17.70
2023-05-25T19:46:24.958Z,17.70
2023-05-25T19:48:51.797Z,17.70
2023-05-25T19:51:18.506Z,17.60
2023-05-25T19:53:46.535Z,17.60
2023-05-25T19:56:13.168Z,17.60
2023-05-25T19:58:39.830Z,17.40
2023-05-25T20:01:06.451Z,17.40
2023-05-25T20:03:33.302Z,17.40
2023-05-25T20:06:00.208Z,17.30
2023-05-25T20:08:27.274Z,17.30
2023-05-25T20:10:54.123Z,17.30
2023-05-25T20:13:20.900Z,17.30
2023-05-25T20:15:48.414Z,17.20
2023-05-25T20:18:15.406Z,17.20
2023-05-25T20:20:42.135Z,17.20
2023-05-25T20:23:09.619Z,17.20
2023-05-25T20:25:38.628Z,17.20
2023-05-25T20:28:05.317Z,17.00
2023-05-25T20:30:31.993Z,17.00
2023-05-25T20:32:58.742Z,16.80
2023-05-25T20:35:25.600Z,16.70
2023-05-25T20:37:52.216Z,16.60
2023-05-25T20:40:18.995Z,16.60
2023-05-25T20:42:45.655Z,16.50
2023-05-25T20:45:12.329Z,16.60
2023-05-25T20:47:42.976Z,16.60
2023-05-25T20:50:10.031Z,16.60
2023-05-25T20:52:36.930Z,16.50
2023-05-25T20:55:03.849Z,16.50
2023-05-25T20:57:30.500Z,16.50
2023-05-25T20:59:59.815Z,16.50
2023-05-25T21:02:28.014Z,16.50
2023-05-25T21:04:54.677Z,16.50
2023-05-25T21:07:22.688Z,16.50
2023-05-25T21:09:49.393Z,16.50
2023-05-25T21:12:16.024Z,16.50
2023-05-25T21:14:42.748Z,16.40
2023-05-25T21:17:09.424Z,16.50
2023-05-25T21:19:36.119Z,16.40
2023-05-25T21:22:02.959Z,16.40
2023-05-25T21:24:29.572Z,16.40
2023-05-25T21:26:56.252Z,16.40
2023-05-25T21:29:22.939Z,16.30
2023-05-25T21:31:49.717Z,16.30
2023-05-25T21:34:16.415Z,16.40
2023-05-25T21:36:43.608Z,16.50
2023-05-25T21:39:10.297Z,16.50
2023-05-25T21:41:36.947Z,16.40
2023-05-25T21:44:03.593Z,16.30
2023-05-25T21:46:30.207Z,16.20
2023-05-25T21:48:56.942Z,16.20
2023-05-25T21:51:23.654Z,16.10
2023-05-25T21:53:50.322Z,16.20
2023-05-25T21:56:17.041Z,16.20
2023-05-25T21:58:43.668Z,16.20
2023-05-25T22:01:10.374Z,16.30
2023-05-25T22:03:37.176Z,16.30
2023-05-25T22:06:03.960Z,16.20
2023-05-25T22:08:30.653Z,16.10
2023-05-25T22:10:57.475Z,16.10
2023-05-25T22:13:24.142Z,16.10
2023-05-25T22:15:51.114Z,16.10
2023-05-25T22:18:17.735Z,16.10
2023-05-25T22:20:44.404Z,16.20
2023-05-25T22:23:12.259Z,16.10
2023-05-25T22:25:39.010Z,16.20
2023-05-25T22:28:05.712Z,16.10
2023-05-25T22:30:32.392Z,16.10
2023-05-25T22:32:59.222Z,16.00
2023-05-25T22:35:25.979Z,15.90
2023-05-25T22:37:52.738Z,15.90
2023-05-25T22:40:19.367Z,16.00
2023-05-25T22:42:50.019Z,15.80
2023-05-25T22:45:17.813Z,15.80
2023-05-25T22:47:44.651Z,15.80
2023-05-25T22:50:11.793Z,15.90
2023-05-25T22:52:42.197Z,15.80
2023-05-25T22:55:09.430Z,15.90
2023-05-25T22:57:36.116Z,15.90
2023-05-25T23:00:04.243Z,15.90
2023-05-25T23:02:30.938Z,15.90
2023-05-25T23:04:57.688Z,15.70
2023-05-25T23:07:24.409Z,15.60
2023-05-25T23:09:51.058Z,15.60
2023-05-25T23:12:17.759Z,15.50
2023-05-25T23:14:44.487Z,15.50
2023-05-25T23:17:11.242Z,15.40
2023-05-25T23:19:38.674Z,15.50
2023-05-25T23:22:05.617Z,15.50
2023-05-25T23:24:32.560Z,15.50
2023-05-25T23:26:59.254Z,15.60
2023-05-25T23:29:25.862Z,15.50
2023-05-25T23:31:52.638Z,15.30
2023-05-25T23:34:19.563Z,15.20
2023-05-25T23:36:46.283Z,15.20
2023-05-25T23:39:13.102Z,15.30
2023-05-25T23:41:39.902Z,15.20
2023-05-25T23:44:07.156Z,15.30
2023-05-25T23:46:33.914Z,15.20
2023-05-25T23:49:00.640Z,15.20
2023-05-25T23:51:27.366Z,15.10
2023-05-25T23:53:54.051Z,15.10
2023-05-25T23:56:21.860Z,15.10
2023-05-25T23:58:48.571Z,15.00
